Time;durP1;ratioP1;P1;durP2;ratioP2;P2;SDS_P1;SDS_P2;PMS_P1;PMS_P2;Temp;Humidity;BMP_temperature;BMP_pressure;BME280_temperature;BME280_humidity;BME280_pressure;Samples;Min_cycle;Max_cycle;Signal;HPM_P1;HPM_P2
2021/05/03 00:05:56;;;;;;;2.77;2.57;;;;;;;3.93;100.00;99784.84;20852067;28;20340;-59
2021/05/03 00:15:57;;;;;;;3.43;3.23;;;;;;;3.99;100.00;99781.91;20869487;28;20638;-60
2021/05/03 00:35:54;;;;;;;3.47;3.27;;;;;;;4.15;100.00;99813.75;21040887;27;20569;-61
2021/05/03 00:45:54;;;;;;;3.27;3.00;;;;;;;4.19;100.00;99823.25;21019679;28;20250;-60
2021/05/03 01:05:50;;;;;;;3.57;3.27;;;;;;;4.22;100.00;99844.25;20865451;27;20639;-62
2021/05/03 01:15:51;;;;;;;3.20;3.00;;;;;;;4.20;100.00;99851.38;20862095;28;20302;-60
2021/05/03 01:25:51;;;;;;;3.00;2.80;;;;;;;4.26;100.00;99869.56;20868628;28;20269;-60
2021/05/03 01:35:52;;;;;;;3.33;3.03;;;;;;;4.26;100.00;99888.06;20853568;28;20217;-59
2021/05/03 01:45:57;;;;;;;3.50;3.20;;;;;;;4.27;100.00;99887.13;20870425;28;20304;-59
2021/05/03 02:05:55;;;;;;;4.77;4.37;;;;;;;4.35;100.00;99898.19;20958123;27;20633;-64
2021/05/03 02:15:56;;;;;;;5.83;4.70;;;;;;;4.36;100.00;99921.03;20937095;28;20628;-67
2021/05/03 02:25:56;;;;;;;4.77;4.37;;;;;;;4.37;100.00;99914.84;20952596;28;20256;-69
2021/05/03 02:35:57;;;;;;;5.40;4.90;;;;;;;4.38;100.00;99935.03;20942189;28;20274;-60
2021/05/03 02:45:57;;;;;;;6.03;5.00;;;;;;;4.45;100.00;99952.34;20944093;28;20542;-62
2021/05/03 02:55:58;;;;;;;5.17;4.67;;;;;;;4.41;100.00;99966.63;20945749;28;20266;-63
2021/05/03 03:05:59;;;;;;;4.50;4.10;;;;;;;4.43;100.00;99991.19;20935345;28;20224;-60
2021/05/03 03:15:59;;;;;;;4.27;3.87;;;;;;;4.43;100.00;99993.81;20902474;28;20295;-59
2021/05/03 03:26:00;;;;;;;4.20;3.80;;;;;;;4.44;100.00;99989.41;20873268;28;20694;-60
2021/05/03 03:36:00;;;;;;;4.10;3.70;;;;;;;4.41;100.00;99997.44;20894025;28;20685;-62
2021/05/03 03:46:01;;;;;;;3.45;3.15;;;;;;;4.49;100.00;100025.25;20873939;28;20217;-62
2021/05/03 03:56:01;;;;;;;3.13;2.93;;;;;;;4.55;100.00;100043.47;20889469;28;20649;-62
2021/05/03 04:36:12;;;;;;;4.33;2.30;;;;;;;5.15;100.00;100069.88;21023474;27;21118;-65
2021/05/03 04:46:16;;;;;;;5.37;2.03;;;;;;;5.24;100.00;100102.03;21038568;28;20297;-61
2021/05/03 04:56:16;;;;;;;2.50;2.30;;;;;;;5.42;100.00;100100.34;21016477;28;20593;-61
2021/05/03 05:06:17;;;;;;;3.93;2.70;;;;;;;5.52;100.00;100122.78;21018921;28;20218;-61
2021/05/03 05:16:18;;;;;;;4.53;3.07;;;;;;;5.90;100.00;100112.22;20997616;28;20802;-60
2021/05/03 05:26:18;;;;;;;3.40;3.10;;;;;;;6.33;100.00;100121.53;21034737;28;20452;-61
2021/05/03 05:36:19;;;;;;;5.07;3.27;;;;;;;6.43;100.00;100130.75;21019594;28;20230;-59
2021/05/03 05:46:19;;;;;;;4.63;3.60;;;;;;;6.52;98.80;100154.13;20977693;28;20229;-60
2021/05/03 05:56:20;;;;;;;3.17;2.80;;;;;;;6.82;98.21;100155.25;20983672;28;20449;-60
2021/05/03 06:06:20;;;;;;;3.17;2.87;;;;;;;7.07;97.81;100148.66;20965471;28;20214;-63
2021/05/03 06:26:28;;;;;;;3.83;3.47;;;;;;;7.61;94.25;100189.97;20974681;27;20964;-62
2021/05/03 06:46:24;;;;;;;3.00;2.73;;;;;;;7.73;86.70;100225.66;20964653;27;20534;-66
2021/05/03 06:56:25;;;;;;;3.00;2.00;;;;;;;7.72;77.91;100239.88;20925881;28;20265;-65
2021/05/03 07:16:23;;;;;;;2.27;2.00;;;;;;;8.47;76.93;100217.97;20811828;27;20618;-63
2021/05/03 07:26:24;;;;;;;2.40;2.20;;;;;;;8.46;73.44;100205.59;20801725;28;20229;-64
2021/05/03 07:36:24;;;;;;;5.60;2.43;;;;;;;8.80;76.67;100229.34;20798201;28;21020;-63
2021/05/03 07:46:26;;;;;;;2.57;1.97;;;;;;;8.83;70.02;100242.44;20849122;28;20844;-67
2021/05/03 07:56:30;;;;;;;2.67;1.23;;;;;;;8.56;64.90;100238.75;20849956;28;20249;-66
2021/05/03 08:06:31;;;;;;;1.50;1.40;;;;;;;8.86;74.07;100287.50;20868480;28;20217;-67
2021/05/03 08:16:36;;;;;;;1.73;1.57;;;;;;;8.60;69.67;100278.34;20844841;28;20226;-67
2021/05/03 08:26:37;;;;;;;1.63;1.30;;;;;;;8.99;70.52;100296.50;20818977;28;20325;-66
2021/05/03 08:36:38;;;;;;;2.57;1.63;;;;;;;9.10;71.25;100309.19;20794558;28;20226;-67
2021/05/03 08:46:46;;;;;;;1.97;1.40;;;;;;;9.34;72.69;100329.03;20806467;28;20281;-64
2021/05/03 08:56:47;;;;;;;2.50;1.50;;;;;;;9.31;67.06;100329.22;20799986;28;20226;-63
2021/05/03 09:07:05;;;;;;;2.13;1.50;;;;;;;10.24;68.76;100328.91;20798702;28;20590;-62
2021/05/03 09:17:06;;;;;;;1.53;1.43;;;;;;;9.90;65.17;100334.59;20819436;28;20227;-62
2021/05/03 09:27:07;;;;;;;1.63;1.53;;;;;;;9.97;66.94;100325.25;20792017;28;20223;-64
2021/05/03 09:37:21;;;;;;;2.30;2.10;;;;;;;10.23;66.83;100350.34;20806590;28;20220;-61
2021/05/03 09:47:22;;;;;;;2.17;1.80;;;;;;;10.02;67.14;100344.50;20784356;28;20227;-63
2021/05/03 09:57:22;;;;;;;3.23;2.20;;;;;;;10.67;67.98;100351.03;20804759;28;20223;-64
2021/05/03 10:07:24;;;;;;;2.17;2.07;;;;;;;10.33;67.04;100352.34;20785649;28;20230;-66
2021/05/03 10:17:27;;;;;;;3.93;1.90;;;;;;;10.00;66.82;100386.38;20802898;28;20219;-60
2021/05/03 10:27:27;;;;;;;3.23;2.37;;;;;;;10.07;71.36;100369.91;20789035;28;20369;-63
2021/05/03 10:37:31;;;;;;;3.00;2.30;;;;;;;9.79;69.38;100377.00;20793976;28;20219;-63
2021/05/03 10:47:45;;;;;;;1.90;1.80;;;;;;;10.37;67.04;100383.22;20795287;28;20301;-64
2021/05/03 10:58:01;;;;;;;2.43;2.13;;;;;;;9.01;72.98;100394.91;20786953;28;20304;-64
2021/05/03 11:08:04;;;;;;;1.87;1.77;;;;;;;9.50;72.04;100403.59;20800093;28;20235;-62
2021/05/03 11:18:20;;;;;;;2.47;2.23;;;;;;;10.07;70.14;100411.72;20781112;28;20239;-61
2021/05/03 11:28:24;;;;;;;3.10;1.90;;;;;;;10.78;69.96;100401.94;20799061;28;20227;-60
2021/05/03 11:48:30;;;;;;;3.30;2.63;;;;;;;10.32;64.83;100409.28;20798203;28;20227;-64
2021/05/03 11:58:31;;;;;;;5.63;3.50;;;;;;;9.67;67.95;100414.09;20792492;28;20290;-61
2021/05/03 12:08:31;;;;;;;3.33;3.03;;;;;;;10.56;67.28;100425.59;20810014;28;20220;-61
2021/05/03 12:18:32;;;;;;;5.03;4.53;;;;;;;11.11;67.77;100425.59;20810688;28;20470;-62
2021/05/03 12:28:35;;;;;;;5.83;4.87;;;;;;;11.44;66.72;100406.53;20801424;28;20223;-61
2021/05/03 12:38:35;;;;;;;5.53;5.03;;;;;;;11.49;71.07;100414.22;20809906;28;20220;-61
2021/05/03 12:48:42;;;;;;;5.80;5.20;;;;;;;9.83;75.11;100442.50;20791080;28;20225;-66
2021/05/03 13:29:48;;;;;;;4.10;3.70;;;;;;;10.91;75.48;100434.03;20787644;28;20265;-62
2021/05/03 13:39:49;;;;;;;4.93;4.10;;;;;;;11.30;77.71;100429.75;20804004;28;20227;-60
2021/05/03 13:49:51;;;;;;;5.30;4.37;;;;;;;11.36;70.89;100399.94;20792262;28;20282;-65
2021/05/03 13:59:52;;;;;;;4.63;4.00;;;;;;;11.02;71.37;100411.97;20800747;28;20218;-61
2021/05/03 14:09:53;;;;;;;6.80;4.80;;;;;;;11.09;69.46;100406.16;20798553;28;20810;-64
2021/05/03 14:19:53;;;;;;;4.50;4.10;;;;;;;10.70;73.82;100422.06;20791363;28;20305;-64
2021/05/03 14:29:58;;;;;;;4.63;4.10;;;;;;;10.18;76.36;100421.72;20803018;28;20228;-61
2021/05/03 14:39:58;;;;;;;6.07;5.07;;;;;;;10.05;76.49;100408.28;20774573;28;20231;-60
2021/05/03 14:50:17;;;;;;;3.90;3.60;;;;;;;9.94;70.85;100406.25;20798233;28;20606;-62
2021/05/03 15:00:18;;;;;;;4.20;3.70;;;;;;;9.79;77.27;100411.66;20787257;28;20680;-60
2021/05/03 15:10:20;;;;;;;4.43;4.03;;;;;;;9.46;78.63;100420.69;20802556;28;20249;-62
2021/05/03 15:40:59;;;;;;;3.30;2.70;;;;;;;9.67;71.78;100333.28;20806271;28;20874;-64
2021/05/03 15:51:00;;;;;;;4.30;2.90;;;;;;;9.88;75.93;100395.13;20807351;28;20245;-61
2021/05/03 16:01:01;;;;;;;3.63;3.10;;;;;;;9.96;74.89;100361.72;20811498;28;20849;-63
2021/05/03 16:11:01;;;;;;;2.80;2.40;;;;;;;9.73;73.80;100379.09;20798178;28;20234;-61
2021/05/03 16:21:03;;;;;;;2.70;2.50;;;;;;;9.45;75.17;100389.66;20813462;28;20531;-60
2021/05/03 16:31:03;;;;;;;3.00;2.80;;;;;;;9.28;78.75;100411.09;20792490;28;20227;-61
2021/05/03 16:41:04;;;;;;;3.83;3.50;;;;;;;9.16;79.28;100417.13;20807644;28;20613;-60
2021/05/03 16:51:04;;;;;;;4.40;3.05;;;;;;;9.02;82.36;100416.09;20790929;28;20234;-60
2021/05/03 17:01:05;;;;;;;4.15;3.75;;;;;;;8.85;83.74;100408.19;20808553;28;20242;-60
2021/05/03 17:11:05;;;;;;;6.07;5.40;;;;;;;8.70;82.88;100432.13;20797577;28;20264;-59
2021/05/03 17:21:06;;;;;;;5.27;4.77;;;;;;;8.49;85.09;100420.84;20773567;28;20240;-61
2021/05/03 17:41:05;;;;;;;7.57;5.93;;;;;;;8.14;87.41;100428.88;20764595;27;20626;-68
2021/05/03 17:51:06;;;;;;;5.90;5.30;;;;;;;8.09;88.58;100438.88;20729740;28;20878;-60
2021/05/03 18:01:08;;;;;;;6.43;5.53;;;;;;;8.01;89.15;100440.22;20700725;28;20227;-59
2021/05/03 18:11:08;;;;;;;6.43;5.53;;;;;;;7.95;89.61;100441.41;20758373;28;20259;-64
2021/05/03 18:31:16;;;;;;;4.80;4.33;;;;;;;7.53;88.68;100461.22;20726247;28;20278;-60
2021/05/03 18:41:16;;;;;;;5.97;4.50;;;;;;;7.37;89.09;100468.22;20733711;28;20308;-63
2021/05/03 18:51:17;;;;;;;6.03;4.43;;;;;;;7.33;89.60;100461.34;20686880;28;20348;-66
2021/05/03 19:01:17;;;;;;;4.67;3.80;;;;;;;7.31;90.45;100473.84;20699751;28;20224;-58
2021/05/03 19:11:19;;;;;;;8.17;5.57;;;;;;;7.27;91.69;100466.94;20656752;28;20355;-59
2021/05/03 19:21:20;;;;;;;5.67;5.03;;;;;;;7.20;93.68;100470.84;20662267;28;20224;-58
2021/05/03 19:41:21;;;;;;;8.67;5.50;;;;;;;7.11;95.25;100476.59;20654603;28;20236;-60
2021/05/03 19:51:28;;;;;;;6.03;4.77;;;;;;;7.03;95.19;100476.06;20666123;28;20224;-64
2021/05/03 20:11:48;;;;;;;6.83;4.83;;;;;;;6.85;92.49;100486.63;20663654;28;20240;-60
2021/05/03 20:21:48;;;;;;;5.37;4.70;;;;;;;6.86;92.65;100503.41;20645351;28;20611;-62
2021/05/03 20:31:49;;;;;;;5.43;3.17;;;;;;;6.75;92.94;100506.56;20664009;28;20379;-58
2021/05/03 20:41:51;;;;;;;2.90;2.60;;;;;;;6.70;90.22;100503.25;20648866;28;20713;-63
2021/05/03 20:51:53;;;;;;;2.20;2.00;;;;;;;6.61;89.77;100497.50;20656370;28;20232;-60
2021/05/03 21:01:54;;;;;;;2.50;2.30;;;;;;;6.60;92.14;100501.94;20681555;28;20224;-58
2021/05/03 21:11:54;;;;;;;2.17;1.97;;;;;;;6.42;92.08;100498.31;20648928;28;20239;-66
2021/05/03 21:21:55;;;;;;;2.20;2.00;;;;;;;6.19;94.62;100494.94;20680516;28;20228;-62
2021/05/03 21:31:56;;;;;;;2.40;2.27;;;;;;;5.78;98.21;100509.00;20640665;28;20733;-62
2021/05/03 21:41:56;;;;;;;2.88;2.67;;;;;;;5.38;100.00;100485.94;20661589;28;20244;-59
2021/05/03 21:51:57;;;;;;;5.53;4.13;;;;;;;5.08;100.00;100497.72;20640992;28;20258;-58
2021/05/03 22:01:58;;;;;;;3.40;3.10;;;;;;;4.79;100.00;100484.78;20679082;28;20247;-66
2021/05/03 22:12:02;;;;;;;4.03;3.63;;;;;;;4.59;100.00;100491.66;20641272;28;20235;-59
2021/05/03 22:22:20;;;;;;;5.40;4.10;;;;;;;4.47;100.00;100493.91;20660521;28;20237;-61
2021/05/03 22:32:20;;;;;;;5.30;4.53;;;;;;;4.38;100.00;100484.50;20707370;28;20266;-58
2021/05/03 22:42:43;;;;;;;6.38;5.72;;;;;;;4.70;100.00;100484.22;20680331;28;20761;-61
2021/05/03 23:23:45;;;;;;;9.00;7.50;;;;;;;4.40;100.00;100482.69;20677377;28;20237;-57
2021/05/03 23:33:45;;;;;;;6.67;6.07;;;;;;;4.21;100.00;100484.28;20677837;28;20253;-62
2021/05/03 23:43:46;;;;;;;6.37;5.60;;;;;;;3.98;100.00;100474.53;20698636;28;20553;-57
2021/05/03 23:53:47;;;;;;;5.97;5.37;;;;;;;3.94;100.00;100476.41;20672888;28;20914;-61
